createdAt,value
2022-10-04T00:04:46.560Z,10.97
2022-10-04T00:09:54.005Z,10.97
2022-10-04T00:15:01.493Z,10.98
2022-10-04T00:20:25.864Z,11.00
2022-10-04T00:25:37.023Z,10.94
2022-10-04T00:30:41.545Z,10.90
2022-10-04T00:35:50.764Z,10.83
2022-10-04T00:40:59.314Z,10.94
2022-10-04T00:46:08.335Z,10.83
2022-10-04T00:51:20.241Z,10.84
2022-10-04T00:56:30.384Z,10.81
2022-10-04T01:01:38.018Z,10.81
2022-10-04T01:06:42.656Z,10.85
2022-10-04T01:11:56.726Z,10.84
2022-10-04T01:17:00.916Z,10.70
2022-10-04T01:22:12.883Z,10.76
2022-10-04T01:27:41.450Z,10.96
2022-10-04T01:32:45.524Z,10.81
2022-10-04T01:37:48.496Z,10.75
2022-10-04T01:42:57.771Z,10.70
2022-10-04T01:48:03.051Z,10.66
2022-10-04T01:53:15.316Z,10.60
2022-10-04T01:58:24.121Z,10.67
2022-10-04T02:03:35.036Z,10.63
2022-10-04T02:08:41.229Z,10.74
2022-10-04T02:13:46.699Z,10.78
2022-10-04T02:18:52.120Z,10.84
2022-10-04T02:23:55.192Z,10.87
2022-10-04T02:28:59.507Z,10.96
2022-10-04T02:34:02.791Z,10.91
2022-10-04T02:39:10.869Z,11.05
2022-10-04T02:44:19.287Z,11.10
2022-10-04T02:49:26.506Z,11.02
2022-10-04T02:54:33.650Z,10.89
2022-10-04T02:59:40.703Z,10.96
2022-10-04T03:04:44.219Z,10.98
2022-10-04T03:09:47.595Z,11.04
2022-10-04T03:14:54.298Z,11.12
2022-10-04T03:19:58.162Z,11.16
2022-10-04T03:25:01.590Z,11.15
2022-10-04T03:30:07.066Z,11.08
2022-10-04T03:35:21.936Z,11.18
2022-10-04T03:40:28.209Z,11.18
2022-10-04T03:45:34.376Z,11.14
2022-10-04T03:50:45.045Z,11.23
2022-10-04T03:55:47.931Z,11.31
2022-10-04T04:01:07.188Z,11.30
2022-10-04T04:06:17.387Z,11.21
2022-10-04T04:11:24.225Z,11.24
2022-10-04T04:16:29.130Z,11.29
2022-10-04T04:21:32.947Z,11.25
2022-10-04T04:26:40.718Z,11.30
2022-10-04T04:31:52.560Z,11.31
2022-10-04T04:37:00.013Z,11.29
2022-10-04T04:42:06.755Z,11.28
2022-10-04T04:47:18.261Z,11.18
2022-10-04T04:52:23.909Z,11.28
2022-10-04T04:57:27.055Z,11.35
2022-10-04T05:02:34.964Z,11.32
2022-10-04T05:07:38.026Z,11.38
2022-10-04T05:12:41.285Z,11.27
2022-10-04T05:17:46.220Z,11.20
2022-10-04T05:22:51.418Z,11.30
2022-10-04T05:27:56.228Z,11.50
2022-10-04T05:33:06.504Z,11.54
2022-10-04T05:38:18.234Z,11.50
2022-10-04T05:43:31.283Z,11.55
2022-10-04T05:48:36.375Z,11.48
2022-10-04T05:53:39.680Z,11.53
2022-10-04T05:58:58.311Z,11.70
2022-10-04T06:04:42.548Z,11.79
2022-10-04T06:09:54.707Z,11.88
2022-10-04T06:15:31.595Z,11.69
2022-10-04T06:21:11.639Z,11.56
2022-10-04T06:26:21.804Z,11.58
2022-10-04T06:31:47.424Z,11.54
2022-10-04T06:37:19.931Z,12.06
2022-10-04T06:42:42.164Z,13.75
2022-10-04T06:48:03.680Z,15.91
2022-10-04T06:53:20.600Z,18.91
2022-10-04T06:58:40.217Z,19.76
2022-10-04T07:03:57.129Z,19.48
2022-10-04T07:09:05.452Z,18.30
2022-10-04T07:14:15.671Z,18.43
2022-10-04T07:19:31.976Z,18.14
2022-10-04T07:24:47.784Z,17.28
2022-10-04T07:29:56.182Z,15.90
2022-10-04T07:35:03.551Z,15.01
2022-10-04T07:40:10.657Z,14.41
2022-10-04T07:45:20.922Z,14.22
2022-10-04T07:50:25.906Z,14.12
2022-10-04T07:55:38.779Z,14.21
2022-10-04T08:00:50.722Z,14.57
2022-10-04T08:06:00.117Z,14.64
2022-10-04T08:11:20.664Z,14.48
2022-10-04T08:16:36.052Z,14.88
2022-10-04T08:21:47.997Z,14.92
2022-10-04T08:27:02.084Z,14.98
2022-10-04T08:32:23.069Z,15.30
2022-10-04T08:37:42.459Z,15.44
2022-10-04T08:43:19.569Z,15.66
2022-10-04T08:49:03.269Z,16.13
2022-10-04T08:54:43.590Z,16.07
2022-10-04T09:00:09.701Z,15.80
2022-10-04T09:05:51.985Z,15.81
2022-10-04T09:11:22.498Z,16.49
2022-10-04T09:16:36.056Z,16.62
2022-10-04T09:22:04.863Z,16.95
2022-10-04T09:27:36.856Z,16.52
2022-10-04T09:33:06.284Z,17.21
2022-10-04T09:38:36.385Z,17.41
2022-10-04T09:44:00.963Z,16.66
2022-10-04T09:49:21.050Z,16.61
2022-10-04T09:54:56.825Z,16.71
2022-10-04T10:00:10.107Z,16.74
2022-10-04T10:05:29.252Z,16.71
2022-10-04T10:11:00.522Z,16.92
2022-10-04T10:16:13.614Z,16.82
2022-10-04T10:21:42.312Z,17.28
2022-10-04T10:26:54.096Z,16.84
2022-10-04T10:32:20.576Z,16.78
2022-10-04T10:37:35.037Z,16.74
2022-10-04T10:43:02.926Z,16.83
2022-10-04T10:48:13.462Z,16.71
2022-10-04T10:53:49.062Z,17.34
2022-10-04T10:59:21.652Z,17.47
2022-10-04T11:04:44.845Z,17.16
2022-10-04T11:10:34.186Z,17.04
2022-10-04T11:15:49.546Z,17.11
2022-10-04T11:21:25.752Z,16.74
2022-10-04T11:27:01.894Z,17.13
2022-10-04T11:32:41.377Z,17.27
2022-10-04T11:37:58.362Z,17.46
2022-10-04T11:43:19.435Z,17.60
2022-10-04T11:48:32.968Z,17.74
2022-10-04T11:54:10.540Z,17.78
2022-10-04T11:59:31.429Z,18.00
2022-10-04T12:04:57.297Z,17.72
2022-10-04T12:10:12.529Z,17.59
2022-10-04T12:15:40.997Z,17.47
2022-10-04T12:21:21.369Z,17.83
2022-10-04T12:26:39.615Z,18.46
2022-10-04T12:31:47.568Z,18.48
2022-10-04T12:37:10.736Z,17.85
2022-10-04T12:42:30.424Z,18.02
2022-10-04T12:47:52.904Z,18.03
2022-10-04T12:53:07.535Z,17.72
2022-10-04T12:58:22.732Z,17.47
2022-10-04T13:03:40.217Z,17.58
2022-10-04T13:08:57.523Z,17.45
2022-10-04T13:14:29.123Z,17.61
2022-10-04T13:19:41.699Z,17.63
2022-10-04T13:24:59.087Z,17.31
2022-10-04T13:30:07.540Z,17.31
2022-10-04T13:35:20.705Z,17.21
2022-10-04T13:40:36.690Z,17.26
2022-10-04T13:45:48.601Z,17.47
2022-10-04T13:51:09.753Z,17.23
2022-10-04T13:56:37.911Z,17.14
2022-10-04T14:01:58.967Z,17.18
2022-10-04T14:07:37.578Z,17.20
2022-10-04T14:13:03.103Z,17.22
2022-10-04T14:18:38.273Z,17.14
2022-10-04T14:24:15.874Z,16.98
2022-10-04T14:29:56.695Z,17.05
2022-10-04T14:35:05.035Z,17.13
2022-10-04T14:40:43.054Z,16.98
2022-10-04T14:46:02.700Z,16.89
2022-10-04T14:51:23.740Z,17.01
2022-10-04T14:56:48.012Z,16.93
2022-10-04T15:02:25.564Z,17.01
2022-10-04T15:07:36.772Z,16.76
2022-10-04T15:13:11.067Z,16.73
2022-10-04T15:18:30.306Z,16.62
2022-10-04T15:23:39.358Z,16.70
2022-10-04T15:29:02.422Z,16.61
2022-10-04T15:34:14.240Z,16.50
2022-10-04T15:39:54.680Z,16.40
2022-10-04T15:45:30.460Z,16.30
2022-10-04T15:50:38.329Z,16.36
2022-10-04T15:56:02.425Z,16.17
2022-10-04T16:01:34.796Z,16.01
2022-10-04T16:06:51.023Z,15.98
2022-10-04T16:12:20.381Z,16.07
2022-10-04T16:17:50.815Z,15.84
2022-10-04T16:23:28.674Z,15.72
2022-10-04T16:29:04.495Z,15.59
2022-10-04T16:34:26.429Z,15.35
2022-10-04T16:39:56.279Z,15.03
2022-10-04T16:45:18.782Z,14.89
2022-10-04T16:50:52.958Z,14.96
2022-10-04T16:56:10.256Z,14.80
2022-10-04T17:01:43.526Z,14.85
2022-10-04T17:06:54.734Z,14.82
2022-10-04T17:12:19.154Z,14.88
2022-10-04T17:17:52.054Z,15.09
2022-10-04T17:23:12.775Z,15.03
2022-10-04T17:28:29.386Z,14.77
2022-10-04T17:33:43.631Z,14.82
2022-10-04T17:38:59.683Z,14.81
2022-10-04T17:44:25.523Z,14.66
2022-10-04T17:49:54.019Z,14.67
2022-10-04T17:55:19.546Z,14.72
2022-10-04T18:00:24.780Z,14.62
2022-10-04T18:05:32.316Z,14.57
2022-10-04T18:10:41.056Z,14.53
2022-10-04T18:15:54.461Z,14.46
2022-10-04T18:21:21.727Z,14.43
2022-10-04T18:26:29.866Z,14.34
2022-10-04T18:31:42.094Z,14.26
2022-10-04T18:36:54.343Z,14.21
2022-10-04T18:42:28.449Z,14.25
2022-10-04T18:47:40.155Z,14.19
2022-10-04T18:52:54.351Z,14.31
2022-10-04T18:58:28.938Z,14.23
2022-10-04T19:03:40.833Z,14.21
2022-10-04T19:08:53.962Z,14.17
2022-10-04T19:14:08.468Z,14.00
2022-10-04T19:19:35.526Z,13.86
2022-10-04T19:24:58.947Z,13.80
2022-10-04T19:30:22.201Z,13.72
2022-10-04T19:35:38.611Z,13.73
2022-10-04T19:41:09.881Z,13.73
2022-10-04T19:46:45.202Z,13.64
2022-10-04T19:52:03.265Z,13.53
2022-10-04T19:57:15.044Z,13.42
2022-10-04T20:02:21.159Z,13.39
2022-10-04T20:07:28.087Z,13.25
2022-10-04T20:12:36.020Z,13.18
2022-10-04T20:17:40.795Z,13.18
2022-10-04T20:23:03.519Z,13.18
2022-10-04T20:28:06.941Z,13.17
2022-10-04T20:33:12.115Z,13.20
2022-10-04T20:38:32.062Z,13.25
2022-10-04T20:43:54.797Z,13.37
2022-10-04T20:48:59.420Z,13.33
2022-10-04T20:54:03.825Z,13.26
2022-10-04T20:59:06.880Z,13.35
2022-10-04T21:04:29.664Z,13.34
2022-10-04T21:09:33.986Z,13.40
2022-10-04T21:14:38.062Z,13.41
2022-10-04T21:19:46.508Z,13.48
2022-10-04T21:24:55.814Z,13.50
2022-10-04T21:29:59.663Z,13.46
2022-10-04T21:35:06.346Z,13.39
2022-10-04T21:40:10.059Z,13.32
2022-10-04T21:45:13.028Z,13.24
2022-10-04T21:50:17.181Z,13.23
2022-10-04T21:55:30.736Z,13.24
2022-10-04T22:00:34.111Z,13.34
2022-10-04T22:05:38.290Z,13.22
2022-10-04T22:10:41.227Z,13.17
2022-10-04T22:15:45.224Z,13.23
2022-10-04T22:20:49.412Z,13.21
2022-10-04T22:25:53.713Z,13.24
2022-10-04T22:30:57.492Z,13.17
2022-10-04T22:36:14.430Z,13.07
2022-10-04T22:41:19.606Z,13.05
2022-10-04T22:46:22.655Z,13.10
2022-10-04T22:51:29.683Z,13.05
2022-10-04T22:56:32.443Z,12.97
2022-10-04T23:01:35.253Z,13.01
2022-10-04T23:06:39.362Z,12.95
2022-10-04T23:11:42.095Z,12.98
2022-10-04T23:16:45.469Z,12.94
2022-10-04T23:21:50.982Z,12.94
2022-10-04T23:26:56.582Z,12.92
2022-10-04T23:31:59.427Z,12.82
2022-10-04T23:37:04.233Z,12.82
2022-10-04T23:42:16.895Z,12.91
2022-10-04T23:47:20.612Z,13.02
2022-10-04T23:52:27.344Z,13.10
2022-10-04T23:57:31.353Z,13.09
